PAA8PZ LRTR-LROP
Flight info
| Callsign | PAA8PZ |
|---|---|
| Flight time | 0h 35m |
| Altitude | 24000 |
| Route | DITAX DCT LAMIT DCT TOSVI |
| Aircraft | L101/H-SDFGHIRWXY/S |
Departure
| Time | 2026-04-21 14:49 |
|---|---|
| Airport | Timișoara Traian Vuia International Airport (LRTR) |
Arrival
| Time | 2026-04-21 15:25 |
|---|---|
| Airport | Bucharest Henri Coandă International Airport (LROP) |
| Time | Latitude | Longitude | Altitude | Speed | Heading |
|---|---|---|---|---|---|
| 2026-04-21 14:20 | 45.81014 | 21.32373 | 355 ft | 0 kts | 313° |
| 2026-04-21 14:45 | 45.81022 | 21.32367 | 347 ft | 2 kts | 340° |
| 2026-04-21 14:45 | 45.81049 | 21.32354 | 352 ft | 6 kts | 339° |
| 2026-04-21 14:46 | 45.81077 | 21.32300 | 357 ft | 9 kts | 291° |
| 2026-04-21 14:46 | 45.81103 | 21.32202 | 352 ft | 13 kts | 290° |
| 2026-04-21 14:46 | 45.81135 | 21.32074 | 352 ft | 11 kts | 296° |
| 2026-04-21 14:46 | 45.81163 | 21.31988 | 349 ft | 10 kts | 291° |
| 2026-04-21 14:47 | 45.81192 | 21.31872 | 350 ft | 14 kts | 290° |
| 2026-04-21 14:47 | 45.81228 | 21.31725 | 355 ft | 11 kts | 289° |
| 2026-04-21 14:47 | 45.81256 | 21.31620 | 354 ft | 13 kts | 297° |
| 2026-04-21 14:47 | 45.81336 | 21.31588 | 351 ft | 13 kts | 20° |
| 2026-04-21 14:48 | 45.81419 | 21.31633 | 352 ft | 14 kts | 19° |
| 2026-04-21 14:48 | 45.81484 | 21.31669 | 351 ft | 7 kts | 32° |
| 2026-04-21 14:48 | 45.81495 | 21.31733 | 345 ft | 8 kts | 101° |
| 2026-04-21 14:48 | 45.81473 | 21.31832 | 349 ft | 16 kts | 109° |
| 2026-04-21 14:49 | 45.81356 | 21.32303 | 359 ft | 94 kts | 112° |
| 2026-04-21 14:49 | 45.81038 | 21.33606 | 412 ft | 172 kts | 105° |
| 2026-04-21 14:49 | 45.80603 | 21.35364 | 1127 ft | 204 kts | 107° |
| 2026-04-21 14:49 | 45.80131 | 21.37323 | 2319 ft | 218 kts | 107° |
| 2026-04-21 14:50 | 45.79745 | 21.38677 | 3036 ft | 216 kts | 112° |
| 2026-04-21 14:50 | 45.78859 | 21.41216 | 4422 ft | 222 kts | 115° |
| 2026-04-21 14:50 | 45.78088 | 21.43345 | 4770 ft | 260 kts | 115° |
| 2026-04-21 14:50 | 45.77202 | 21.45798 | 5000 ft | 298 kts | 116° |
| 2026-04-21 14:51 | 45.76235 | 21.48498 | 5794 ft | 307 kts | 116° |
| 2026-04-21 14:51 | 45.75284 | 21.51170 | 7242 ft | 290 kts | 116° |
| 2026-04-21 14:51 | 45.74409 | 21.53658 | 8904 ft | 274 kts | 116° |
| 2026-04-21 14:51 | 45.73549 | 21.56121 | 9985 ft | 284 kts | 116° |
| 2026-04-21 14:52 | 45.72622 | 21.58798 | 10285 ft | 318 kts | 116° |
| 2026-04-21 14:52 | 45.71587 | 21.61800 | 10389 ft | 354 kts | 116° |
| 2026-04-21 14:52 | 45.70457 | 21.65087 | 10498 ft | 382 kts | 116° |
| 2026-04-21 14:52 | 45.69265 | 21.68555 | 10844 ft | 399 kts | 116° |
| 2026-04-21 14:53 | 45.68043 | 21.72111 | 11817 ft | 396 kts | 116° |
| 2026-04-21 14:53 | 45.66839 | 21.75617 | 13025 ft | 391 kts | 116° |
| 2026-04-21 14:53 | 45.65622 | 21.79173 | 13620 ft | 406 kts | 116° |
| 2026-04-21 14:53 | 45.64364 | 21.82852 | 14244 ft | 413 kts | 116° |
| 2026-04-21 14:54 | 45.63109 | 21.86517 | 15376 ft | 409 kts | 116° |
| 2026-04-21 14:54 | 45.61844 | 21.90189 | 16004 ft | 420 kts | 116° |
| 2026-04-21 14:54 | 45.60530 | 21.93985 | 16651 ft | 428 kts | 116° |
| 2026-04-21 14:54 | 45.59209 | 21.97781 | 17753 ft | 427 kts | 116° |
| 2026-04-21 14:55 | 45.57867 | 22.01610 | 18479 ft | 436 kts | 116° |
| 2026-04-21 14:55 | 45.56497 | 22.05504 | 19136 ft | 442 kts | 116° |
| 2026-04-21 14:55 | 45.55107 | 22.09459 | 19770 ft | 449 kts | 116° |
| 2026-04-21 14:55 | 45.53704 | 22.13476 | 20406 ft | 455 kts | 116° |
| 2026-04-21 14:56 | 45.52295 | 22.17560 | 21009 ft | 462 kts | 116° |
| 2026-04-21 14:56 | 45.50878 | 22.21705 | 21640 ft | 469 kts | 116° |
| 2026-04-21 14:56 | 45.49446 | 22.25921 | 22258 ft | 475 kts | 116° |
| 2026-04-21 14:56 | 45.48025 | 22.30134 | 22845 ft | 481 kts | 115° |
| 2026-04-21 14:57 | 45.46677 | 22.34612 | 23344 ft | 490 kts | 111° |
| 2026-04-21 14:57 | 45.45576 | 22.39156 | 23721 ft | 470 kts | 108° |
| 2026-04-21 14:57 | 45.44614 | 22.43400 | 23821 ft | 450 kts | 108° |
| 2026-04-21 14:57 | 45.43614 | 22.47637 | 23942 ft | 452 kts | 109° |
| 2026-04-21 14:58 | 45.42574 | 22.51882 | 24049 ft | 453 kts | 110° |
| 2026-04-21 14:58 | 45.41527 | 22.56128 | 24178 ft | 455 kts | 110° |
| 2026-04-21 14:58 | 45.40491 | 22.60383 | 24290 ft | 456 kts | 109° |
| 2026-04-21 14:58 | 45.39463 | 22.64663 | 24390 ft | 457 kts | 109° |
| 2026-04-21 14:59 | 45.38436 | 22.68960 | 24353 ft | 460 kts | 109° |
| 2026-04-21 14:59 | 45.37397 | 22.73294 | 24245 ft | 463 kts | 110° |
| 2026-04-21 14:59 | 45.36356 | 22.77614 | 24096 ft | 463 kts | 110° |
| 2026-04-21 14:59 | 45.35308 | 22.81951 | 24004 ft | 466 kts | 110° |
| 2026-04-21 15:00 | 45.34254 | 22.86288 | 23991 ft | 474 kts | 110° |
| 2026-04-21 15:00 | 45.33142 | 22.90861 | 23957 ft | 493 kts | 110° |
| 2026-04-21 15:00 | 45.32028 | 22.95435 | 23939 ft | 499 kts | 110° |
| 2026-04-21 15:00 | 45.30891 | 23.00118 | 23950 ft | 502 kts | 110° |
| 2026-04-21 15:01 | 45.29744 | 23.04838 | 23959 ft | 508 kts | 110° |
| 2026-04-21 15:01 | 45.28584 | 23.09597 | 23952 ft | 509 kts | 110° |
| 2026-04-21 15:01 | 45.27423 | 23.14340 | 23955 ft | 510 kts | 110° |
| 2026-04-21 15:01 | 45.26253 | 23.19108 | 23948 ft | 510 kts | 110° |
| 2026-04-21 15:02 | 45.25085 | 23.23856 | 23946 ft | 510 kts | 110° |
| 2026-04-21 15:02 | 45.23916 | 23.28609 | 23943 ft | 510 kts | 110° |
| 2026-04-21 15:02 | 45.22752 | 23.33356 | 23945 ft | 510 kts | 110° |
| 2026-04-21 15:02 | 45.21574 | 23.38135 | 23947 ft | 517 kts | 110° |
| 2026-04-21 15:03 | 45.20382 | 23.42924 | 23934 ft | 522 kts | 110° |
| 2026-04-21 15:03 | 45.19178 | 23.47790 | 23944 ft | 523 kts | 110° |
| 2026-04-21 15:03 | 45.17970 | 23.52662 | 23942 ft | 525 kts | 110° |
| 2026-04-21 15:03 | 45.16749 | 23.57567 | 23941 ft | 528 kts | 110° |
| 2026-04-21 15:04 | 45.15518 | 23.62477 | 23944 ft | 529 kts | 110° |
| 2026-04-21 15:04 | 45.14281 | 23.67393 | 23945 ft | 529 kts | 110° |
| 2026-04-21 15:04 | 45.13044 | 23.72309 | 23941 ft | 533 kts | 111° |
| 2026-04-21 15:04 | 45.11790 | 23.77293 | 23947 ft | 537 kts | 111° |
| 2026-04-21 15:05 | 45.10531 | 23.82282 | 23942 ft | 539 kts | 111° |
| 2026-04-21 15:05 | 45.08020 | 23.92215 | 23951 ft | 540 kts | 111° |
| 2026-04-21 15:05 | 45.06750 | 23.97221 | 23950 ft | 540 kts | 111° |
| 2026-04-21 15:06 | 45.05481 | 24.02213 | 23948 ft | 539 kts | 111° |
| 2026-04-21 15:06 | 45.04207 | 24.07215 | 23937 ft | 539 kts | 111° |
| 2026-04-21 15:06 | 45.02935 | 24.12198 | 23963 ft | 539 kts | 111° |
| 2026-04-21 15:06 | 45.01658 | 24.17185 | 23962 ft | 539 kts | 111° |
| 2026-04-21 15:07 | 45.00382 | 24.22156 | 23948 ft | 539 kts | 111° |
| 2026-04-21 15:07 | 44.99104 | 24.27125 | 23971 ft | 539 kts | 111° |
| 2026-04-21 15:07 | 44.97820 | 24.32110 | 23957 ft | 539 kts | 111° |
| 2026-04-21 15:07 | 44.96535 | 24.37086 | 23974 ft | 539 kts | 111° |
| 2026-04-21 15:08 | 44.95256 | 24.42039 | 23937 ft | 532 kts | 112° |
| 2026-04-21 15:08 | 44.93998 | 24.46904 | 23338 ft | 521 kts | 112° |
| 2026-04-21 15:08 | 44.92770 | 24.51593 | 22608 ft | 510 kts | 112° |
| 2026-04-21 15:08 | 44.91495 | 24.56266 | 21915 ft | 499 kts | 113° |
| 2026-04-21 15:09 | 44.90245 | 24.60716 | 21247 ft | 489 kts | 113° |
| 2026-04-21 15:09 | 44.89020 | 24.65074 | 20599 ft | 466 kts | 113° |
| 2026-04-21 15:09 | 44.87861 | 24.69227 | 19960 ft | 445 kts | 112° |
| 2026-04-21 15:09 | 44.86755 | 24.73199 | 19335 ft | 427 kts | 113° |
| 2026-04-21 15:10 | 44.85687 | 24.77022 | 18820 ft | 409 kts | 113° |
| 2026-04-21 15:10 | 44.84663 | 24.80675 | 18315 ft | 393 kts | 112° |
| 2026-04-21 15:10 | 44.83672 | 24.84198 | 17739 ft | 379 kts | 112° |
| 2026-04-21 15:10 | 44.82721 | 24.87580 | 17216 ft | 365 kts | 112° |
| 2026-04-21 15:11 | 44.81798 | 24.90859 | 16703 ft | 357 kts | 112° |
| 2026-04-21 15:11 | 44.80881 | 24.94105 | 16203 ft | 355 kts | 112° |
| 2026-04-21 15:11 | 44.79971 | 24.97323 | 15714 ft | 353 kts | 112° |
| 2026-04-21 15:11 | 44.79065 | 25.00522 | 15217 ft | 350 kts | 112° |
| 2026-04-21 15:12 | 44.78168 | 25.03689 | 14753 ft | 347 kts | 112° |
| 2026-04-21 15:12 | 44.77279 | 25.06827 | 14268 ft | 344 kts | 112° |
| 2026-04-21 15:12 | 44.76393 | 25.09947 | 13811 ft | 342 kts | 112° |
| 2026-04-21 15:12 | 44.75513 | 25.13041 | 13298 ft | 339 kts | 112° |
| 2026-04-21 15:13 | 44.74933 | 25.15080 | 12951 ft | 337 kts | 112° |
| 2026-04-21 15:13 | 44.73776 | 25.19146 | 12283 ft | 333 kts | 112° |
| 2026-04-21 15:13 | 44.72920 | 25.22149 | 11779 ft | 329 kts | 112° |
| 2026-04-21 15:13 | 44.72068 | 25.25137 | 11287 ft | 326 kts | 112° |
| 2026-04-21 15:14 | 44.71227 | 25.28078 | 10798 ft | 323 kts | 112° |
| 2026-04-21 15:14 | 44.70393 | 25.30994 | 10335 ft | 317 kts | 112° |
| 2026-04-21 15:14 | 44.69592 | 25.33790 | 9926 ft | 306 kts | 112° |
| 2026-04-21 15:14 | 44.68811 | 25.36520 | 9503 ft | 296 kts | 112° |
| 2026-04-21 15:15 | 44.68054 | 25.39163 | 9074 ft | 288 kts | 112° |
| 2026-04-21 15:15 | 44.67311 | 25.41756 | 8660 ft | 286 kts | 112° |
| 2026-04-21 15:15 | 44.66564 | 25.44356 | 8233 ft | 287 kts | 112° |
| 2026-04-21 15:15 | 44.65818 | 25.46949 | 7822 ft | 285 kts | 112° |
| 2026-04-21 15:16 | 44.65079 | 25.49520 | 7444 ft | 283 kts | 112° |
| 2026-04-21 15:16 | 44.64343 | 25.52076 | 7070 ft | 281 kts | 112° |
| 2026-04-21 15:16 | 44.63610 | 25.54617 | 6664 ft | 279 kts | 112° |
| 2026-04-21 15:16 | 44.62892 | 25.57102 | 6296 ft | 272 kts | 112° |
| 2026-04-21 15:17 | 44.62188 | 25.59540 | 5945 ft | 265 kts | 113° |
| 2026-04-21 15:17 | 44.61517 | 25.61864 | 5585 ft | 252 kts | 112° |
| 2026-04-21 15:17 | 44.60868 | 25.64113 | 5287 ft | 252 kts | 113° |
| 2026-04-21 15:17 | 44.60209 | 25.66390 | 4950 ft | 250 kts | 114° |
| 2026-04-21 15:18 | 44.59578 | 25.68573 | 4561 ft | 233 kts | 114° |
| 2026-04-21 15:18 | 44.58981 | 25.70642 | 4339 ft | 226 kts | 114° |
| 2026-04-21 15:18 | 44.58406 | 25.72619 | 3987 ft | 209 kts | 112° |
| 2026-04-21 15:18 | 44.57879 | 25.74434 | 3958 ft | 199 kts | 113° |
| 2026-04-21 15:19 | 44.57346 | 25.76268 | 4016 ft | 206 kts | 112° |
| 2026-04-21 15:19 | 44.56805 | 25.78134 | 3967 ft | 208 kts | 113° |
| 2026-04-21 15:19 | 44.56202 | 25.79945 | 3774 ft | 197 kts | 117° |
| 2026-04-21 15:19 | 44.55796 | 25.81740 | 3414 ft | 190 kts | 100° |
| 2026-04-21 15:20 | 44.55734 | 25.83518 | 3243 ft | 176 kts | 87° |
| 2026-04-21 15:20 | 44.55851 | 25.85145 | 3000 ft | 164 kts | 83° |
| 2026-04-21 15:20 | 44.55937 | 25.86198 | 2836 ft | 162 kts | 84° |
| 2026-04-21 15:20 | 44.56310 | 25.88138 | 2618 ft | 157 kts | 62° |
| 2026-04-21 15:21 | 44.56666 | 25.89594 | 2760 ft | 161 kts | 79° |
| 2026-04-21 15:21 | 44.56804 | 25.91143 | 2798 ft | 158 kts | 84° |
| 2026-04-21 15:21 | 44.56876 | 25.92184 | 2794 ft | 160 kts | 84° |
| 2026-04-21 15:21 | 44.56977 | 25.93731 | 2799 ft | 159 kts | 85° |
| 2026-04-21 15:22 | 44.57035 | 25.95284 | 2791 ft | 161 kts | 88° |
| 2026-04-21 15:22 | 44.57049 | 25.96842 | 2624 ft | 158 kts | 89° |
| 2026-04-21 15:22 | 44.56979 | 25.98391 | 2456 ft | 161 kts | 95° |
| 2026-04-21 15:22 | 44.56966 | 25.99940 | 2234 ft | 156 kts | 83° |
| 2026-04-21 15:23 | 44.57119 | 26.01431 | 1975 ft | 153 kts | 81° |
| 2026-04-21 15:23 | 44.57232 | 26.02884 | 1508 ft | 150 kts | 83° |
| 2026-04-21 15:23 | 44.57337 | 26.04314 | 1043 ft | 140 kts | 82° |
| 2026-04-21 15:23 | 44.57443 | 26.05616 | 757 ft | 133 kts | 81° |
| 2026-04-21 15:24 | 44.57542 | 26.06929 | 558 ft | 129 kts | 81° |
| 2026-04-21 15:24 | 44.57635 | 26.08088 | 389 ft | 115 kts | 82° |
| 2026-04-21 15:24 | 44.57713 | 26.09096 | 320 ft | 85 kts | 84° |
| 2026-04-21 15:24 | 44.57764 | 26.09742 | 326 ft | 53 kts | 85° |
| 2026-04-21 15:25 | 44.57796 | 26.10204 | 326 ft | 43 kts | 82° |
| 2026-04-21 15:25 | 44.57821 | 26.10520 | 324 ft | 30 kts | 83° |
| 2026-04-21 15:25 | 44.57834 | 26.10789 | 322 ft | 25 kts | 94° |
| 2026-04-21 15:25 | 44.57791 | 26.11034 | 315 ft | 24 kts | 115° |
| 2026-04-21 15:26 | 44.57739 | 26.11168 | 317 ft | 12 kts | 145° |
| 2026-04-21 15:26 | 44.57701 | 26.11143 | 317 ft | 5 kts | 245° |
| 2026-04-21 15:26 | 44.57691 | 26.11081 | 317 ft | 8 kts | 261° |
| 2026-04-21 15:26 | 44.57684 | 26.10990 | 316 ft | 12 kts | 264° |
| 2026-04-21 15:27 | 44.57674 | 26.10850 | 318 ft | 17 kts | 263° |
| 2026-04-21 15:27 | 44.57660 | 26.10671 | 320 ft | 19 kts | 264° |
| 2026-04-21 15:27 | 44.57648 | 26.10496 | 324 ft | 16 kts | 264° |
| 2026-04-21 15:27 | 44.57633 | 26.10316 | 323 ft | 21 kts | 264° |
| 2026-04-21 15:28 | 44.57619 | 26.10119 | 327 ft | 20 kts | 263° |
| 2026-04-21 15:28 | 44.57607 | 26.09975 | 328 ft | 12 kts | 264° |
| 2026-04-21 15:28 | 44.57582 | 26.09844 | 321 ft | 15 kts | 217° |
| 2026-04-21 15:28 | 44.57477 | 26.09840 | 321 ft | 18 kts | 174° |
| 2026-04-21 15:29 | 44.57342 | 26.09860 | 318 ft | 14 kts | 173° |
| 2026-04-21 15:29 | 44.57223 | 26.09877 | 317 ft | 16 kts | 174° |
| 2026-04-21 15:29 | 44.57145 | 26.09890 | 316 ft | 12 kts | 173° |
| 2026-04-21 15:29 | 44.57058 | 26.09909 | 316 ft | 13 kts | 154° |
| 2026-04-21 15:30 | 44.57032 | 26.10026 | 317 ft | 15 kts | 83° |
| 2026-04-21 15:30 | 44.57032 | 26.10074 | 317 ft | 1 kts | 126° |
| 2026-04-21 15:30 | 44.57031 | 26.10075 | 317 ft | 0 kts | 136° |
| 2026-04-21 15:30 | 44.57027 | 26.10076 | 317 ft | 0 kts | 159° |
| 2026-04-21 15:31 | 44.57023 | 26.10075 | 317 ft | 1 kts | 187° |
| 2026-04-21 15:31 | 44.57016 | 26.10066 | 315 ft | 3 kts | 218° |
| 2026-04-21 15:31 | 44.56989 | 26.10038 | 316 ft | 6 kts | 209° |
| 2026-04-21 15:31 | 44.56969 | 26.10025 | 317 ft | 0 kts | 204° |